Time;durP1;ratioP1;P1;durP2;ratioP2;P2;SDS_P1;SDS_P2;PMS_P1;PMS_P2;Temp;Humidity;BMP_temperature;BMP_pressure;BME280_temperature;BME280_humidity;BME280_pressure;Samples;Min_cycle;Max_cycle;Signal;HPM_P1;HPM_P2
2023/09/29 00:01:35;;;;;;;260.23;166.27;;;27.10;99.90;;;;;;5094842;28;20056;-72
2023/09/29 00:04:04;;;;;;;255.60;167.65;;;27.10;99.90;;;;;;5095483;28;20482;-72
2023/09/29 00:06:32;;;;;;;264.17;169.80;;;27.20;99.90;;;;;;5095469;28;20028;-72
2023/09/29 00:08:59;;;;;;;251.50;163.70;;;27.20;99.90;;;;;;5095068;28;20019;-73
2023/09/29 00:11:27;;;;;;;244.63;158.63;;;27.20;99.90;;;;;;5095227;28;20024;-73
2023/09/29 00:13:54;;;;;;;224.55;148.02;;;27.30;99.90;;;;;;5095309;28;20103;-73
2023/09/29 00:16:20;;;;;;;247.98;156.45;;;27.30;99.90;;;;;;5094878;28;20103;-72
2023/09/29 00:18:47;;;;;;;249.82;159.10;;;27.40;99.90;;;;;;5095191;28;20050;-73
2023/09/29 00:21:13;;;;;;;232.70;154.48;;;27.40;99.90;;;;;;5095041;28;20027;-70
2023/09/29 00:23:40;;;;;;;224.65;146.23;;;27.40;99.90;;;;;;5094880;28;20044;-73
2023/09/29 00:26:07;;;;;;;212.40;141.75;;;27.50;99.90;;;;;;5094996;28;20377;-71
2023/09/29 00:28:33;;;;;;;218.50;139.40;;;27.60;99.90;;;;;;5094858;28;20539;-71
2023/09/29 00:31:00;;;;;;;196.63;128.55;;;27.60;99.90;;;;;;5094860;28;20111;-70
2023/09/29 00:33:26;;;;;;;188.30;125.35;;;27.60;99.90;;;;;;5094654;28;20116;-71
2023/09/29 00:35:53;;;;;;;169.88;117.07;;;27.60;99.90;;;;;;5094727;28;20052;-73
2023/09/29 00:38:19;;;;;;;175.40;116.93;;;27.80;99.90;;;;;;5094695;28;20043;-73
2023/09/29 00:40:46;;;;;;;162.05;108.15;;;27.70;99.90;;;;;;5093459;28;20496;-72
2023/09/29 00:43:15;;;;;;;155.40;98.38;;;27.80;99.90;;;;;;5094915;28;20028;-73
2023/09/29 00:45:42;;;;;;;138.43;89.57;;;27.80;99.90;;;;;;5094495;28;20020;-69
2023/09/29 00:48:10;;;;;;;139.98;87.47;;;28.00;99.90;;;;;;5094989;28;20028;-72
2023/09/29 00:50:39;;;;;;;121.07;84.63;;;28.00;99.90;;;;;;5094363;28;20032;-72
2023/09/29 00:53:08;;;;;;;132.40;90.82;;;28.20;99.90;;;;;;5094229;28;20024;-69
2023/09/29 00:55:36;;;;;;;144.18;94.38;;;28.20;99.90;;;;;;5094239;28;20035;-72
2023/09/29 00:58:05;;;;;;;186.68;112.32;;;28.30;99.90;;;;;;5094388;28;20031;-72
2023/09/29 01:00:32;;;;;;;155.90;100.93;;;28.10;99.90;;;;;;5093776;28;20054;-72
2023/09/29 01:03:04;;;;;;;136.85;90.95;;;28.10;99.90;;;;;;5094125;28;20044;-72
2023/09/29 01:05:35;;;;;;;151.50;94.75;;;28.20;99.90;;;;;;5094174;28;20027;-73
2023/09/29 01:08:05;;;;;;;214.20;131.60;;;28.20;99.90;;;;;;5093842;28;20165;-71
2023/09/29 01:10:32;;;;;;;216.80;126.05;;;28.30;99.90;;;;;;5102977;28;20027;-72
2023/09/29 01:12:59;;;;;;;166.57;107.95;;;28.20;99.90;;;;;;5113803;28;20106;-72
2023/09/29 01:15:25;;;;;;;181.43;111.43;;;28.30;99.90;;;;;;5093737;28;20095;-70
2023/09/29 01:17:52;;;;;;;172.80;109.93;;;28.30;99.90;;;;;;5093987;28;20023;-70
2023/09/29 01:20:40;;;;;;;174.05;112.28;;;28.40;99.90;;;;;;5094036;28;20049;-70
2023/09/29 01:23:07;;;;;;;156.07;102.00;;;28.50;99.90;;;;;;5093475;28;20055;-71
2023/09/29 01:25:35;;;;;;;136.40;92.57;;;28.50;99.90;;;;;;5093896;28;20094;-72
2023/09/29 01:28:05;;;;;;;467.40;372.63;;;28.40;99.90;;;;;;5100244;28;20073;-71
2023/09/29 01:30:32;;;;;;;675.03;476.70;;;28.40;99.90;;;;;;5114205;28;20028;-71
2023/09/29 01:32:59;;;;;;;392.77;249.13;;;28.40;99.90;;;;;;5114138;28;20023;-71
2023/09/29 01:35:27;;;;;;;268.85;155.60;;;28.50;99.90;;;;;;5113770;28;20098;-70
2023/09/29 01:37:55;;;;;;;260.50;152.27;;;28.60;99.90;;;;;;5114127;28;20027;-70
2023/09/29 01:40:23;;;;;;;289.45;162.40;;;28.70;99.90;;;;;;5113810;28;20057;-71
2023/09/29 01:42:51;;;;;;;255.32;151.80;;;28.70;99.90;;;;;;5113684;28;20427;-72
2023/09/29 01:45:19;;;;;;;212.85;131.63;;;28.80;99.90;;;;;;5113843;28;20458;-71
2023/09/29 01:47:47;;;;;;;212.60;127.13;;;28.80;99.90;;;;;;5113757;28;20035;-71
2023/09/29 01:50:16;;;;;;;199.23;119.28;;;29.00;99.90;;;;;;5113786;28;20020;-71
2023/09/29 01:52:46;;;;;;;211.20;127.10;;;29.00;99.90;;;;;;5113468;28;20303;-70
2023/09/29 01:55:15;;;;;;;237.70;144.82;;;29.10;99.90;;;;;;5113613;28;20441;-71
2023/09/29 01:57:45;;;;;;;256.80;159.90;;;29.20;99.90;;;;;;5113839;28;20149;-71
2023/09/29 02:00:15;;;;;;;258.13;158.52;;;29.20;99.90;;;;;;5113480;28;20027;-72
2023/09/29 02:02:44;;;;;;;271.75;165.30;;;29.30;99.90;;;;;;5113262;28;20043;-71
2023/09/29 02:05:11;;;;;;;282.17;168.57;;;29.40;99.90;;;;;;5113660;28;20019;-72
2023/09/29 02:07:39;;;;;;;233.98;145.25;;;29.60;99.90;;;;;;5113572;28;20027;-70
2023/09/29 02:10:08;;;;;;;244.15;139.45;;;29.60;99.90;;;;;;5113602;28;20027;-70
2023/09/29 02:12:47;;;;;;;217.90;132.53;;;29.70;99.90;;;;;;5113519;28;20074;-69
2023/09/29 02:15:17;;;;;;;202.07;124.78;;;29.90;99.90;;;;;;5113342;28;20647;-68
2023/09/29 02:17:45;;;;;;;203.00;121.93;;;30.00;99.90;;;;;;5113639;28;20076;-69
2023/09/29 02:20:28;;;;;;;187.63;111.55;;;30.10;99.90;;;;;;5113605;28;20477;-68
2023/09/29 02:22:56;;;;;;;174.95;105.78;;;30.20;99.90;;;;;;5113713;28;20462;-68
2023/09/29 02:25:32;;;;;;;178.88;99.18;;;30.30;99.90;;;;;;5113556;28;20023;-69
2023/09/29 02:28:00;;;;;;;176.82;102.28;;;30.40;99.90;;;;;;5113226;28;20053;-68
2023/09/29 02:30:28;;;;;;;165.35;89.32;;;30.60;99.90;;;;;;5113416;28;20016;-69
2023/09/29 02:32:56;;;;;;;143.32;76.60;;;30.60;99.90;;;;;;5113401;28;20465;-67
2023/09/29 02:35:23;;;;;;;133.88;68.72;;;30.80;99.90;;;;;;5113084;28;20027;-65
2023/09/29 02:37:52;;;;;;;125.30;67.75;;;30.80;99.90;;;;;;5113237;28;20027;-68
2023/09/29 02:40:19;;;;;;;194.98;92.15;;;30.90;99.90;;;;;;5113176;28;20023;-67
2023/09/29 02:42:46;;;;;;;144.23;78.70;;;30.90;99.90;;;;;;5113253;28;20473;-67
2023/09/29 02:45:13;;;;;;;186.68;98.15;;;30.90;99.90;;;;;;5113103;28;20035;-67
2023/09/29 02:47:40;;;;;;;193.20;100.75;;;30.90;99.90;;;;;;5113118;28;20061;-64
2023/09/29 02:50:16;;;;;;;160.27;87.43;;;30.90;99.90;;;;;;5113024;28;20464;-64
2023/09/29 02:52:42;;;;;;;152.32;87.43;;;31.00;99.90;;;;;;5112284;28;20164;-64
2023/09/29 02:55:12;;;;;;;149.65;83.78;;;31.10;99.90;;;;;;5111874;28;20024;-67
2023/09/29 02:57:42;;;;;;;152.02;88.85;;;31.20;99.90;;;;;;5111994;28;20035;-63
2023/09/29 03:00:26;;;;;;;221.30;114.32;;;31.30;99.90;;;;;;5112920;28;20461;-62
2023/09/29 03:02:54;;;;;;;234.80;131.48;;;31.40;99.90;;;;;;5113036;28;20533;-63
2023/09/29 03:05:21;;;;;;;289.27;149.10;;;31.60;99.90;;;;;;5115259;28;20382;-62
2023/09/29 03:07:48;;;;;;;276.42;151.05;;;31.60;99.90;;;;;;5114791;28;20472;-62
2023/09/29 03:10:16;;;;;;;325.52;177.02;;;31.60;99.90;;;;;;5095710;28;20024;-63
2023/09/29 03:12:44;;;;;;;359.02;189.38;;;31.60;99.90;;;;;;5074702;28;20040;-63
2023/09/29 03:15:15;;;;;;;359.38;199.25;;;31.70;99.90;;;;;;5078465;28;20035;-63
2023/09/29 03:17:43;;;;;;;359.80;204.70;;;31.70;99.90;;;;;;5095179;28;20036;-63
2023/09/29 03:20:11;;;;;;;366.38;206.77;;;31.70;99.90;;;;;;5095648;28;20020;-65
2023/09/29 03:22:39;;;;;;;380.25;221.38;;;31.70;99.90;;;;;;5095869;28;20470;-68
2023/09/29 03:25:06;;;;;;;406.35;235.88;;;31.80;99.90;;;;;;5096041;28;20084;-64
2023/09/29 03:27:34;;;;;;;407.85;244.25;;;31.80;99.90;;;;;;5095947;28;20051;-64
2023/09/29 03:30:01;;;;;;;425.83;249.60;;;31.90;99.90;;;;;;5091332;28;20024;-64
2023/09/29 03:32:29;;;;;;;435.58;257.73;;;32.00;99.90;;;;;;5095988;28;20386;-63
2023/09/29 03:34:56;;;;;;;440.60;252.77;;;32.00;99.90;;;;;;5095139;28;20047;-64
2023/09/29 03:37:23;;;;;;;424.15;249.00;;;32.00;99.90;;;;;;5094494;28;20059;-64
2023/09/29 03:39:50;;;;;;;407.23;231.48;;;32.10;99.90;;;;;;5095299;28;20154;-64
2023/09/29 03:42:16;;;;;;;362.67;208.15;;;32.20;99.90;;;;;;5093767;28;20027;-64
2023/09/29 03:44:44;;;;;;;278.58;154.13;;;32.20;99.90;;;;;;5095098;28;20114;-64
2023/09/29 03:47:12;;;;;;;190.68;110.18;;;32.30;99.90;;;;;;5095771;28;20016;-63
2023/09/29 03:49:39;;;;;;;215.23;117.18;;;32.30;99.90;;;;;;5095593;28;20024;-64
2023/09/29 03:52:06;;;;;;;198.18;113.63;;;32.20;99.90;;;;;;5095444;28;20028;-64
2023/09/29 03:54:33;;;;;;;199.98;112.00;;;32.30;99.90;;;;;;5095446;28;20099;-64
2023/09/29 03:57:04;;;;;;;155.88;90.60;;;32.40;99.90;;;;;;5095502;28;20103;-64
2023/09/29 03:59:32;;;;;;;124.22;69.18;;;32.50;99.90;;;;;;5095286;28;20074;-64
2023/09/29 04:01:58;;;;;;;90.88;52.92;;;32.60;99.90;;;;;;5094990;28;20078;-64
2023/09/29 04:04:25;;;;;;;72.05;44.70;;;32.70;99.90;;;;;;5095215;28;20048;-64
2023/09/29 04:06:52;;;;;;;78.03;45.28;;;32.80;99.90;;;;;;5095228;28;20027;-64
2023/09/29 04:09:20;;;;;;;78.90;47.28;;;32.90;99.90;;;;;;5095274;28;20052;-64
2023/09/29 04:11:49;;;;;;;92.80;57.85;;;32.90;99.90;;;;;;5095214;28;20063;-66
2023/09/29 04:14:16;;;;;;;107.07;64.40;;;33.00;99.90;;;;;;5094869;28;20035;-65
2023/09/29 04:16:42;;;;;;;105.97;63.88;;;33.10;99.90;;;;;;5095268;28;20039;-65
2023/09/29 04:19:11;;;;;;;105.03;61.67;;;33.10;99.90;;;;;;5095053;28;20028;-66
2023/09/29 04:21:38;;;;;;;103.72;64.70;;;33.20;99.90;;;;;;5094747;28;20078;-63
2023/09/29 04:24:05;;;;;;;130.63;78.38;;;33.20;99.90;;;;;;5094931;28;20024;-64
2023/09/29 04:26:31;;;;;;;136.35;82.60;;;33.20;99.80;;;;;;5095118;28;20077;-63
2023/09/29 04:28:58;;;;;;;147.95;91.18;;;33.20;99.80;;;;;;5094827;28;20083;-64
2023/09/29 04:31:25;;;;;;;158.13;94.07;;;33.30;99.60;;;;;;5095052;28;20028;-64
2023/09/29 04:33:51;;;;;;;155.57;96.28;;;33.40;99.60;;;;;;5094720;28;20039;-64
2023/09/29 04:36:18;;;;;;;162.60;98.97;;;33.50;99.30;;;;;;5094628;28;20107;-65
2023/09/29 04:38:45;;;;;;;205.27;110.07;;;33.40;99.20;;;;;;5104795;28;20110;-64
2023/09/29 04:41:12;;;;;;;170.15;104.95;;;33.50;99.50;;;;;;5100140;28;20163;-65
2023/09/29 04:43:38;;;;;;;178.40;110.40;;;33.60;99.30;;;;;;5090321;28;20488;-64
2023/09/29 04:46:05;;;;;;;175.80;110.13;;;33.50;99.20;;;;;;5088486;28;20021;-67
2023/09/29 04:48:32;;;;;;;195.73;125.93;;;33.60;98.70;;;;;;5085956;28;20025;-65
2023/09/29 04:51:00;;;;;;;205.18;130.40;;;33.70;98.40;;;;;;5082948;28;20032;-65
2023/09/29 04:53:26;;;;;;;206.25;133.82;;;33.80;98.00;;;;;;5084517;28;20020;-64
2023/09/29 04:55:53;;;;;;;201.02;130.45;;;33.80;98.00;;;;;;5084320;28;20115;-65
2023/09/29 04:58:19;;;;;;;195.25;127.53;;;33.80;97.90;;;;;;5082413;28;20028;-64
2023/09/29 05:00:46;;;;;;;204.48;131.45;;;33.90;97.90;;;;;;5082888;28;20056;-65
2023/09/29 05:03:13;;;;;;;202.48;135.02;;;33.80;97.70;;;;;;5083564;28;20024;-65
2023/09/29 05:05:39;;;;;;;193.27;130.43;;;33.90;97.10;;;;;;5084742;28;20019;-65
2023/09/29 05:08:07;;;;;;;176.73;116.75;;;33.80;96.80;;;;;;5083193;28;20024;-65
2023/09/29 05:10:34;;;;;;;170.25;114.18;;;34.00;99.90;;;;;;5083223;28;20020;-65
2023/09/29 05:13:01;;;;;;;153.45;104.10;;;34.00;99.90;;;;;;5084509;28;20489;-66
2023/09/29 05:15:28;;;;;;;168.63;105.72;;;34.20;99.90;;;;;;5081912;28;20024;-64
2023/09/29 05:17:54;;;;;;;160.85;105.20;;;34.30;99.90;;;;;;5087188;28;20020;-65
2023/09/29 05:20:21;;;;;;;157.23;100.97;;;34.30;99.90;;;;;;5082405;28;20435;-65
2023/09/29 05:22:47;;;;;;;153.50;104.35;;;34.30;99.90;;;;;;5083761;28;20039;-65
2023/09/29 05:25:14;;;;;;;164.50;110.35;;;34.30;99.90;;;;;;5083887;28;20099;-65
2023/09/29 05:27:40;;;;;;;174.60;113.15;;;34.30;99.90;;;;;;5081731;28;20023;-66
2023/09/29 05:30:07;;;;;;;155.85;108.43;;;34.50;99.90;;;;;;5087997;28;20055;-65
2023/09/29 05:32:34;;;;;;;154.15;99.90;;;34.50;99.90;;;;;;5089837;28;20016;-65
2023/09/29 05:35:00;;;;;;;137.32;94.20;;;34.50;99.90;;;;;;5093770;28;20028;-65
2023/09/29 05:37:27;;;;;;;118.35;82.10;;;34.50;99.90;;;;;;5084739;28;20111;-65
2023/09/29 05:39:54;;;;;;;112.25;77.65;;;34.50;99.90;;;;;;5082043;28;20111;-65
2023/09/29 05:42:21;;;;;;;112.13;75.70;;;34.60;99.90;;;;;;5083125;28;20024;-64
2023/09/29 05:44:48;;;;;;;122.93;78.53;;;34.50;99.90;;;;;;5085605;28;20024;-65
2023/09/29 05:47:16;;;;;;;108.90;72.45;;;34.60;99.90;;;;;;5080480;28;20024;-65
2023/09/29 05:49:43;;;;;;;104.18;70.10;;;34.70;99.90;;;;;;5080788;28;20063;-64
2023/09/29 05:52:09;;;;;;;107.00;67.32;;;34.90;99.90;;;;;;5081014;28;20103;-62
2023/09/29 05:54:36;;;;;;;117.18;79.55;;;34.90;99.90;;;;;;5078461;28;20102;-63
2023/09/29 05:57:03;;;;;;;121.63;76.90;;;35.00;99.90;;;;;;5087629;28;20723;-65
2023/09/29 05:59:29;;;;;;;98.32;66.68;;;35.00;99.90;;;;;;5090404;28;20080;-65
2023/09/29 06:01:57;;;;;;;97.55;63.08;;;35.00;99.90;;;;;;5089121;28;20048;-65
2023/09/29 06:04:24;;;;;;;110.68;69.38;;;35.10;99.90;;;;;;5084304;28;20107;-65
2023/09/29 06:06:50;;;;;;;117.45;79.43;;;35.10;99.90;;;;;;5082320;28;20597;-64
2023/09/29 06:09:17;;;;;;;124.95;81.32;;;35.20;99.90;;;;;;5078152;28;20060;-65
2023/09/29 06:11:43;;;;;;;121.20;78.13;;;35.30;99.90;;;;;;5079107;28;20099;-64
2023/09/29 06:14:10;;;;;;;96.75;64.13;;;35.40;99.90;;;;;;5084320;28;20034;-63
2023/09/29 06:16:37;;;;;;;81.80;58.22;;;35.50;99.90;;;;;;5090614;28;20028;-65
2023/09/29 06:19:03;;;;;;;84.40;56.90;;;35.50;99.90;;;;;;5083379;28;20031;-65
2023/09/29 06:21:30;;;;;;;85.40;58.47;;;35.60;99.90;;;;;;5082979;28;20506;-65
2023/09/29 06:23:56;;;;;;;89.40;59.30;;;35.60;99.90;;;;;;5081938;28;20040;-64
2023/09/29 06:26:23;;;;;;;95.07;63.20;;;35.50;99.90;;;;;;5083026;28;20714;-65
2023/09/29 06:28:49;;;;;;;97.03;65.97;;;35.60;99.90;;;;;;5082014;28;20086;-65
2023/09/29 06:31:17;;;;;;;98.30;65.93;;;35.60;99.90;;;;;;5081004;28;20048;-64
2023/09/29 06:33:43;;;;;;;86.07;59.95;;;35.60;99.90;;;;;;5080981;28;20131;-66
2023/09/29 06:36:10;;;;;;;83.57;55.80;;;35.60;99.90;;;;;;5079465;28;20078;-65
2023/09/29 06:38:36;;;;;;;110.68;72.25;;;35.60;99.90;;;;;;5065528;28;20591;-66
2023/09/29 06:41:03;;;;;;;86.57;58.13;;;35.70;99.90;;;;;;5087355;28;20513;-63
2023/09/29 06:43:29;;;;;;;88.13;58.90;;;35.60;99.90;;;;;;5086852;28;20017;-64
2023/09/29 06:45:56;;;;;;;82.68;56.53;;;35.70;99.90;;;;;;5085726;28;20474;-65
2023/09/29 06:48:22;;;;;;;79.57;55.13;;;35.70;99.90;;;;;;5085804;28;20073;-66
2023/09/29 06:50:49;;;;;;;74.72;54.92;;;35.60;99.90;;;;;;5086728;28;20023;-64
2023/09/29 06:53:16;;;;;;;81.30;56.70;;;35.60;99.90;;;;;;5087412;28;20019;-64
2023/09/29 06:55:42;;;;;;;78.35;54.80;;;35.70;99.90;;;;;;5085929;28;20016;-65
2023/09/29 06:58:09;;;;;;;85.50;55.85;;;35.80;99.90;;;;;;5086465;28;20412;-69
2023/09/29 07:00:35;;;;;;;82.30;53.63;;;35.90;99.90;;;;;;5086964;28;20068;-69
2023/09/29 07:03:02;;;;;;;73.90;52.83;;;36.00;99.90;;;;;;5085421;28;20504;-67
2023/09/29 07:05:28;;;;;;;82.43;55.78;;;36.00;99.90;;;;;;5086480;28;20516;-69
2023/09/29 07:07:55;;;;;;;81.30;57.63;;;36.10;99.90;;;;;;5087049;28;20020;-68
2023/09/29 07:10:21;;;;;;;84.53;58.42;;;36.00;99.90;;;;;;5085227;28;20020;-69
2023/09/29 07:12:49;;;;;;;90.32;60.42;;;36.10;99.90;;;;;;5086440;28;20024;-69
2023/09/29 07:15:15;;;;;;;85.18;59.25;;;36.10;99.90;;;;;;5086978;28;20020;-67
2023/09/29 07:17:42;;;;;;;87.93;58.08;;;36.10;99.90;;;;;;5088767;28;20024;-65
2023/09/29 07:20:09;;;;;;;88.35;62.58;;;36.00;99.90;;;;;;5096336;28;20115;-66
2023/09/29 07:22:36;;;;;;;89.10;62.08;;;36.00;99.90;;;;;;5096175;28;20084;-67
2023/09/29 07:25:02;;;;;;;101.38;68.53;;;35.90;99.90;;;;;;5096374;28;20493;-67
2023/09/29 07:27:30;;;;;;;165.15;110.50;;;35.90;99.90;;;;;;5096325;28;20054;-63
2023/09/29 07:29:57;;;;;;;178.27;123.78;;;35.80;99.90;;;;;;5096058;28;20478;-64
2023/09/29 07:32:26;;;;;;;162.32;115.38;;;35.80;99.90;;;;;;5095978;28;20124;-63
2023/09/29 07:34:52;;;;;;;167.43;107.05;;;35.70;99.90;;;;;;5095977;28;20103;-65
2023/09/29 07:37:19;;;;;;;156.00;106.22;;;35.70;99.90;;;;;;5095883;28;20027;-65
2023/09/29 07:39:45;;;;;;;137.18;92.40;;;35.70;99.90;;;;;;5096186;28;20032;-68
2023/09/29 07:42:12;;;;;;;187.35;124.78;;;35.80;99.90;;;;;;5092654;28;20695;-68
2023/09/29 07:44:39;;;;;;;197.63;135.32;;;35.90;99.90;;;;;;5084422;28;20103;-67
2023/09/29 07:47:08;;;;;;;199.38;127.75;;;35.80;99.90;;;;;;5085139;28;20093;-69
2023/09/29 07:49:40;;;;;;;192.48;127.55;;;35.70;99.90;;;;;;5085559;28;20024;-67
2023/09/29 07:52:07;;;;;;;199.57;133.13;;;35.60;99.90;;;;;;5085368;28;20021;-68
2023/09/29 07:54:35;;;;;;;205.52;134.82;;;35.50;99.90;;;;;;5084245;28;20024;-66
2023/09/29 07:57:02;;;;;;;204.52;134.52;;;35.50;99.90;;;;;;5085754;28;20028;-66
2023/09/29 07:59:29;;;;;;;208.18;137.38;;;35.50;99.90;;;;;;5085698;28;20462;-67
2023/09/29 08:01:58;;;;;;;213.05;143.10;;;35.40;99.90;;;;;;5083718;28;20036;-66
2023/09/29 08:04:25;;;;;;;208.82;140.52;;;35.50;99.90;;;;;;5085033;28;20027;-66
2023/09/29 08:06:52;;;;;;;197.32;131.70;;;35.40;99.90;;;;;;5085821;28;20040;-69
2023/09/29 08:09:19;;;;;;;220.27;146.05;;;35.50;99.90;;;;;;5084245;28;20065;-71
2023/09/29 08:11:45;;;;;;;231.75;153.00;;;35.30;99.90;;;;;;5084691;28;20066;-70
2023/09/29 08:14:13;;;;;;;220.10;144.38;;;35.20;99.90;;;;;;5085589;28;20024;-70
2023/09/29 08:16:39;;;;;;;219.57;146.10;;;35.20;99.90;;;;;;5083857;28;20103;-69
2023/09/29 08:19:06;;;;;;;234.43;149.80;;;35.30;99.90;;;;;;5084453;28;20101;-70
2023/09/29 08:21:33;;;;;;;233.32;152.68;;;35.50;99.90;;;;;;5085301;28;20267;-64
2023/09/29 08:24:04;;;;;;;225.68;146.98;;;35.50;99.90;;;;;;5083914;28;20025;-64
2023/09/29 08:26:31;;;;;;;210.23;142.43;;;35.40;99.90;;;;;;5083477;28;20020;-63
2023/09/29 08:29:00;;;;;;;292.80;153.18;;;35.40;99.90;;;;;;5082774;28;20099;-63
2023/09/29 08:31:26;;;;;;;248.55;163.02;;;35.40;99.90;;;;;;5083941;28;20031;-63
2023/09/29 08:33:53;;;;;;;259.58;166.20;;;35.30;99.90;;;;;;5085275;28;20381;-64
2023/09/29 08:36:20;;;;;;;255.63;167.60;;;35.30;99.90;;;;;;5084700;28;20482;-65
2023/09/29 08:38:46;;;;;;;250.60;169.48;;;35.30;99.90;;;;;;5083845;28;20059;-65
2023/09/29 08:41:16;;;;;;;245.85;162.40;;;35.30;99.90;;;;;;5083026;28;20127;-64
2023/09/29 08:43:44;;;;;;;252.55;167.30;;;35.20;99.90;;;;;;5084276;28;20044;-65
2023/09/29 08:46:14;;;;;;;228.00;162.60;;;35.10;99.90;;;;;;5084876;28;20016;-65
2023/09/29 08:48:44;;;;;;;236.40;160.43;;;35.10;99.90;;;;;;5083436;28;20382;-64
2023/09/29 08:51:12;;;;;;;229.98;152.93;;;35.10;99.90;;;;;;5083112;28;20024;-65
2023/09/29 08:53:43;;;;;;;227.32;155.98;;;35.10;99.90;;;;;;5083199;28;20031;-65
2023/09/29 08:56:12;;;;;;;242.48;157.82;;;35.10;99.90;;;;;;5083149;28;20020;-64
2023/09/29 08:58:39;;;;;;;247.82;162.75;;;35.10;99.90;;;;;;5093044;28;20027;-63
2023/09/29 09:01:06;;;;;;;244.18;155.27;;;35.10;99.90;;;;;;5098984;28;20047;-65
2023/09/29 09:03:32;;;;;;;233.98;155.55;;;35.00;99.90;;;;;;5114203;28;20497;-63
2023/09/29 09:05:59;;;;;;;231.38;148.45;;;35.00;99.90;;;;;;5114672;28;20058;-63
2023/09/29 09:08:26;;;;;;;230.50;143.88;;;34.90;99.90;;;;;;5076417;28;20453;-66
2023/09/29 09:11:02;;;;;;;219.88;144.25;;;34.90;99.90;;;;;;5083382;28;20070;-65
2023/09/29 09:13:29;;;;;;;233.50;148.13;;;34.90;99.90;;;;;;5083952;28;20025;-65
2023/09/29 09:15:57;;;;;;;223.00;147.15;;;34.80;99.90;;;;;;5083037;28;20012;-66
2023/09/29 09:18:27;;;;;;;231.23;144.10;;;34.70;99.90;;;;;;5087465;28;20032;-65
2023/09/29 09:20:54;;;;;;;231.65;147.55;;;34.70;99.90;;;;;;5088199;28;20028;-66
2023/09/29 09:23:21;;;;;;;230.02;144.70;;;34.70;99.90;;;;;;5087991;28;20237;-65
2023/09/29 09:25:48;;;;;;;220.75;138.55;;;34.70;99.90;;;;;;5085662;28;20021;-69
2023/09/29 09:28:18;;;;;;;233.88;139.93;;;34.60;99.90;;;;;;5088749;28;20497;-66
2023/09/29 09:30:50;;;;;;;207.35;135.13;;;34.60;99.90;;;;;;5092998;28;20052;-67
2023/09/29 09:33:22;;;;;;;200.60;126.20;;;34.50;99.90;;;;;;5092944;28;20027;-66
2023/09/29 09:35:50;;;;;;;201.73;126.68;;;34.50;99.90;;;;;;5093505;28;20028;-66
2023/09/29 09:38:17;;;;;;;192.90;123.57;;;34.60;99.90;;;;;;5093180;28;20028;-66
2023/09/29 09:40:44;;;;;;;206.90;130.32;;;34.50;99.90;;;;;;5092207;28;20025;-67
2023/09/29 09:43:11;;;;;;;211.90;133.57;;;34.50;99.90;;;;;;5092935;28;20016;-67
2023/09/29 09:45:40;;;;;;;212.52;136.30;;;34.40;99.90;;;;;;5092936;28;20028;-66
2023/09/29 09:48:09;;;;;;;207.40;131.10;;;34.40;99.90;;;;;;5093248;28;20020;-66
2023/09/29 09:50:36;;;;;;;221.23;136.52;;;34.30;99.90;;;;;;5093330;28;20411;-66
2023/09/29 09:53:08;;;;;;;225.50;143.38;;;34.30;99.90;;;;;;5092926;28;20381;-67
2023/09/29 09:55:39;;;;;;;238.02;144.00;;;34.20;99.90;;;;;;5093327;28;20024;-66
2023/09/29 09:58:10;;;;;;;292.90;180.45;;;34.10;99.90;;;;;;5093250;28;20036;-66
2023/09/29 10:00:39;;;;;;;307.52;185.25;;;34.10;99.90;;;;;;5092997;28;20084;-66
2023/09/29 10:03:12;;;;;;;269.35;161.63;;;34.10;99.90;;;;;;5093106;28;20077;-66
2023/09/29 10:05:41;;;;;;;288.20;169.38;;;34.00;99.90;;;;;;5093003;28;20023;-66
2023/09/29 10:08:10;;;;;;;265.20;161.73;;;34.00;99.90;;;;;;5093394;28;20032;-66
2023/09/29 10:10:38;;;;;;;254.23;159.07;;;34.00;99.90;;;;;;5093391;28;20111;-66
2023/09/29 10:13:06;;;;;;;252.38;153.00;;;33.90;99.90;;;;;;5092741;28;20056;-66
2023/09/29 10:15:35;;;;;;;269.67;168.90;;;33.90;99.90;;;;;;5093030;28;20112;-66
2023/09/29 10:18:13;;;;;;;286.33;174.18;;;33.90;99.90;;;;;;5093075;28;20024;-66
2023/09/29 10:20:39;;;;;;;239.77;148.07;;;33.90;99.90;;;;;;5092891;28;20104;-67
2023/09/29 10:23:08;;;;;;;220.95;137.73;;;33.80;99.90;;;;;;5093215;28;20538;-66
2023/09/29 10:25:38;;;;;;;224.52;135.35;;;33.80;99.90;;;;;;5092920;28;20031;-66
2023/09/29 10:28:07;;;;;;;206.63;128.65;;;33.80;99.90;;;;;;5092968;28;20093;-65
2023/09/29 10:30:35;;;;;;;221.73;130.70;;;33.70;99.90;;;;;;5093021;28;20016;-66
2023/09/29 10:33:11;;;;;;;221.57;140.38;;;33.70;99.90;;;;;;5092982;28;20027;-67
2023/09/29 10:35:46;;;;;;;224.57;136.63;;;33.70;99.90;;;;;;5092892;28;20032;-67
2023/09/29 10:38:24;;;;;;;215.77;136.07;;;33.70;99.90;;;;;;5092982;28;20027;-66
2023/09/29 10:40:52;;;;;;;209.68;129.70;;;33.60;99.90;;;;;;5092707;28;20455;-67
2023/09/29 10:43:23;;;;;;;215.48;134.88;;;33.60;99.90;;;;;;5092880;28;20024;-66
2023/09/29 10:45:51;;;;;;;223.33;134.87;;;33.60;99.90;;;;;;5092674;28;20045;-66
2023/09/29 10:48:21;;;;;;;210.73;132.10;;;33.60;99.90;;;;;;5092703;28;20028;-66
2023/09/29 10:50:50;;;;;;;214.18;129.93;;;33.60;99.90;;;;;;5092598;28;20418;-66
2023/09/29 10:53:21;;;;;;;204.05;125.50;;;33.50;99.90;;;;;;5092562;28;20043;-66
2023/09/29 10:55:51;;;;;;;218.73;129.60;;;33.40;99.90;;;;;;5092541;28;20024;-67
2023/09/29 10:58:19;;;;;;;192.80;115.22;;;33.30;99.90;;;;;;5092450;28;20031;-66
2023/09/29 11:00:47;;;;;;;186.65;117.03;;;33.20;99.90;;;;;;5092163;28;20040;-66
2023/09/29 11:03:21;;;;;;;197.38;121.70;;;33.20;99.90;;;;;;5092630;28;20029;-66
2023/09/29 11:05:50;;;;;;;187.35;115.07;;;33.10;99.90;;;;;;5092441;28;20052;-66
2023/09/29 11:08:20;;;;;;;178.52;110.10;;;33.10;99.90;;;;;;5092678;28;20025;-66
2023/09/29 11:11:06;;;;;;;158.70;97.97;;;33.10;99.90;;;;;;5092532;28;20100;-66
2023/09/29 11:13:33;;;;;;;160.52;97.72;;;33.00;99.90;;;;;;5092655;28;20020;-66
2023/09/29 11:16:00;;;;;;;162.13;96.45;;;32.90;99.90;;;;;;5092647;28;20089;-66
2023/09/29 11:18:30;;;;;;;168.55;104.15;;;32.90;99.90;;;;;;5092280;28;20078;-66
2023/09/29 11:20:59;;;;;;;174.18;108.90;;;32.80;99.90;;;;;;5092512;28;20074;-66
2023/09/29 11:23:28;;;;;;;187.40;115.13;;;32.80;99.90;;;;;;5092694;28;20024;-66
2023/09/29 11:25:58;;;;;;;212.35;127.60;;;32.70;99.90;;;;;;5094811;28;20061;-66
2023/09/29 11:28:28;;;;;;;248.23;153.48;;;32.70;99.90;;;;;;5095971;28;20385;-66
2023/09/29 11:30:55;;;;;;;235.18;146.93;;;32.60;99.90;;;;;;5096087;28;20024;-67
2023/09/29 11:33:22;;;;;;;229.55;140.60;;;32.60;99.90;;;;;;5096210;28;20536;-67
2023/09/29 11:35:50;;;;;;;208.32;125.50;;;32.50;99.90;;;;;;5096133;28;20025;-66
2023/09/29 11:38:26;;;;;;;189.73;110.45;;;32.50;99.90;;;;;;5095654;28;20385;-66
2023/09/29 11:40:54;;;;;;;182.18;111.25;;;32.50;99.90;;;;;;5095663;28;20045;-66
2023/09/29 11:43:21;;;;;;;188.32;106.97;;;32.50;99.90;;;;;;5095661;28;20028;-67
2023/09/29 11:45:48;;;;;;;184.60;105.70;;;32.40;99.90;;;;;;5095480;28;20110;-67
2023/09/29 11:48:15;;;;;;;168.50;96.15;;;32.40;99.90;;;;;;5095764;28;20027;-67
2023/09/29 11:50:41;;;;;;;194.77;107.63;;;32.40;99.90;;;;;;5095651;28;20031;-66
2023/09/29 11:53:08;;;;;;;217.32;119.45;;;32.40;99.90;;;;;;5095519;28;20023;-67
2023/09/29 11:55:38;;;;;;;204.77;117.20;;;32.30;99.90;;;;;;5095556;28;20017;-66
2023/09/29 11:58:07;;;;;;;210.93;118.53;;;32.30;99.90;;;;;;5095392;28;20023;-67
2023/09/29 12:00:35;;;;;;;174.60;99.57;;;32.20;99.90;;;;;;5094967;28;20052;-66
2023/09/29 12:03:05;;;;;;;188.65;107.57;;;32.20;99.90;;;;;;5095230;28;20035;-66
2023/09/29 12:05:33;;;;;;;200.13;109.68;;;32.20;99.90;;;;;;5095244;28;20551;-66
2023/09/29 12:08:00;;;;;;;230.80;119.60;;;32.20;99.90;;;;;;5095057;28;20108;-66
2023/09/29 12:10:28;;;;;;;253.55;138.27;;;32.10;99.90;;;;;;5095051;28;20020;-66
2023/09/29 12:12:55;;;;;;;282.40;148.63;;;32.10;99.90;;;;;;5095258;28;20486;-66
2023/09/29 12:15:21;;;;;;;274.08;151.93;;;32.00;99.90;;;;;;5095163;28;20032;-66